Time;durP1;ratioP1;P1;durP2;ratioP2;P2;SDS_P1;SDS_P2;PMS_P1;PMS_P2;Temp;Humidity;BMP_temperature;BMP_pressure;BME280_temperature;BME280_humidity;BME280_pressure;Samples;Min_cycle;Max_cycle;Signal;HPM_P1;HPM_P2
2023/04/10 00:01:44;;;;;;;38.43;29.43;;;7.70;1.00;;;;;;5125554;27;21059;-80
2023/04/10 00:04:12;;;;;;;34.37;25.43;;;7.60;1.00;;;;;;5126670;27;20568;-80
2023/04/10 00:06:40;;;;;;;30.77;25.27;;;7.60;1.00;;;;;;5126378;27;20426;-81
2023/04/10 00:09:07;;;;;;;35.63;28.00;;;7.60;1.00;;;;;;5128057;27;20535;-80
2023/04/10 00:11:36;;;;;;;44.40;35.00;;;7.50;1.00;;;;;;5122850;27;22561;-82
2023/04/10 00:14:03;;;;;;;47.53;32.07;;;7.50;1.00;;;;;;5120262;27;20459;-79
2023/04/10 00:16:30;;;;;;;61.27;42.37;;;7.50;1.00;;;;;;5127880;27;21014;-81
2023/04/10 00:18:59;;;;;;;72.83;54.00;;;7.40;1.00;;;;;;5122698;27;20962;-80
2023/04/10 00:21:26;;;;;;;63.03;54.90;;;7.30;1.00;;;;;;5131022;27;20564;-79
2023/04/10 00:23:53;;;;;;;54.33;45.53;;;7.20;1.00;;;;;;5129745;27;20463;-79
2023/04/10 00:26:22;;;;;;;61.20;46.90;;;7.00;1.00;;;;;;5124805;27;20422;-79
2023/04/10 00:28:52;;;;;;;49.47;39.00;;;7.00;1.00;;;;;;5128682;27;21053;-80
2023/04/10 00:31:19;;;;;;;42.53;34.53;;;6.90;1.00;;;;;;5124092;27;20606;-80
2023/04/10 00:33:46;;;;;;;38.97;29.47;;;6.80;1.00;;;;;;5125735;27;20316;-78
2023/04/10 00:36:13;;;;;;;38.20;28.97;;;6.80;1.00;;;;;;5124903;27;20428;-79
2023/04/10 00:38:40;;;;;;;32.23;27.23;;;6.70;1.00;;;;;;5132631;27;20461;-79
2023/04/10 00:41:07;;;;;;;33.58;26.73;;;6.70;1.00;;;;;;5123814;27;20692;-80
2023/04/10 00:43:34;;;;;;;32.77;28.47;;;6.60;1.00;;;;;;5121881;27;20245;-81
2023/04/10 00:46:06;;;;;;;28.67;25.23;;;6.60;1.00;;;;;;5124291;27;20456;-80
2023/04/10 00:48:33;;;;;;;30.60;25.60;;;6.60;1.00;;;;;;5126356;27;20597;-79
2023/04/10 00:51:00;;;;;;;31.80;27.57;;;6.70;1.00;;;;;;5117323;27;20425;-79
2023/04/10 00:53:29;;;;;;;35.55;28.48;;;6.80;1.00;;;;;;5127739;27;20472;-80
2023/04/10 00:55:57;;;;;;;36.73;29.20;;;6.80;1.00;;;;;;5124606;27;20245;-79
2023/04/10 00:58:25;;;;;;;34.80;28.65;;;6.70;1.00;;;;;;5111905;27;20494;-80
2023/04/10 01:00:52;;;;;;;34.63;26.77;;;6.60;1.00;;;;;;5115756;27;20245;-79
2023/04/10 01:03:21;;;;;;;34.53;28.45;;;6.60;1.00;;;;;;5124429;27;20230;-80
2023/04/10 01:06:00;;;;;;;29.67;24.07;;;6.60;1.00;;;;;;5126538;27;20242;-80
2023/04/10 01:08:45;;;;;;;28.87;22.07;;;6.50;1.00;;;;;;5126679;27;20443;-81
2023/04/10 01:11:18;;;;;;;32.13;24.77;;;6.50;1.00;;;;;;5128585;27;20432;-79
2023/04/10 01:13:53;;;;;;;28.37;24.53;;;6.50;1.00;;;;;;5121401;27;20509;-81
2023/04/10 01:16:27;;;;;;;31.37;25.00;;;6.60;1.00;;;;;;5122132;27;20870;-81
2023/04/10 01:19:02;;;;;;;32.78;24.73;;;6.60;1.00;;;;;;5125032;27;21341;-81
2023/04/10 01:21:31;;;;;;;29.70;25.40;;;6.60;1.00;;;;;;5127634;27;20229;-79
2023/04/10 01:24:24;;;;;;;33.42;24.77;;;6.60;1.00;;;;;;5126903;27;20232;-79
2023/04/10 01:27:04;;;;;;;27.13;23.30;;;6.50;1.00;;;;;;5121133;27;20241;-79
2023/04/10 01:29:36;;;;;;;27.75;23.70;;;6.50;1.00;;;;;;5119274;27;20478;-79
2023/04/10 01:32:11;;;;;;;29.50;22.40;;;6.40;1.00;;;;;;5127976;27;20268;-79
2023/04/10 01:34:43;;;;;;;23.50;20.87;;;6.40;1.00;;;;;;5127514;27;20490;-79
2023/04/10 01:37:16;;;;;;;24.50;20.07;;;6.50;1.00;;;;;;5131155;27;20480;-81
2023/04/10 01:39:44;;;;;;;26.00;20.93;;;6.60;1.00;;;;;;5129476;27;20558;-80
2023/04/10 01:42:13;;;;;;;29.25;23.10;;;6.60;1.00;;;;;;5127166;27;20594;-80
2023/04/10 01:44:44;;;;;;;29.00;22.90;;;6.60;1.00;;;;;;5125666;27;20234;-80
2023/04/10 01:47:15;;;;;;;24.57;21.97;;;6.60;1.00;;;;;;5129606;27;20457;-79
2023/04/10 01:49:47;;;;;;;28.40;22.10;;;6.50;1.00;;;;;;5128776;27;20464;-80
2023/04/10 01:52:15;;;;;;;27.07;22.27;;;6.50;1.00;;;;;;5130576;27;20566;-80
2023/04/10 01:54:44;;;;;;;30.93;22.80;;;6.40;1.00;;;;;;5129731;27;20544;-80
2023/04/10 01:57:13;;;;;;;28.93;22.90;;;6.30;1.00;;;;;;5129228;27;20429;-80
2023/04/10 01:59:43;;;;;;;30.90;23.03;;;6.20;1.00;;;;;;5130679;27;20892;-81
2023/04/10 02:02:11;;;;;;;30.27;22.70;;;6.10;1.00;;;;;;5128764;27;20920;-81
2023/04/10 02:04:38;;;;;;;33.05;23.70;;;6.00;1.00;;;;;;5126668;27;20273;-79
2023/04/10 02:07:10;;;;;;;26.15;23.05;;;5.90;1.00;;;;;;5131515;27;20245;-79
2023/04/10 02:09:47;;;;;;;34.00;25.37;;;5.90;1.00;;;;;;5126658;27;20244;-80
2023/04/10 02:12:19;;;;;;;29.27;24.65;;;5.90;1.00;;;;;;5130245;27;20943;-80
2023/04/10 02:14:49;;;;;;;33.57;24.77;;;5.90;1.00;;;;;;5132255;27;20242;-80
2023/04/10 02:17:23;;;;;;;32.05;25.00;;;5.90;1.00;;;;;;5129749;27;21246;-80
2023/04/10 02:19:53;;;;;;;33.50;27.10;;;5.90;1.00;;;;;;5131109;27;20308;-81
2023/04/10 02:22:20;;;;;;;33.60;27.90;;;5.90;1.00;;;;;;5123024;27;20244;-80
2023/04/10 02:24:49;;;;;;;34.47;28.77;;;5.90;1.00;;;;;;5120551;27;20870;-81
2023/04/10 02:27:16;;;;;;;31.87;28.40;;;5.90;1.00;;;;;;5126250;27;21071;-79
2023/04/10 02:29:43;;;;;;;36.77;28.50;;;5.80;1.00;;;;;;5124581;27;20470;-79
2023/04/10 02:32:11;;;;;;;36.42;28.70;;;5.80;1.00;;;;;;5132201;27;20456;-80
2023/04/10 02:34:38;;;;;;;32.85;27.33;;;5.70;1.00;;;;;;5123190;27;20224;-80
2023/04/10 02:37:05;;;;;;;40.45;30.75;;;5.60;1.00;;;;;;5126838;27;20252;-79
2023/04/10 02:39:32;;;;;;;40.97;33.50;;;5.60;1.00;;;;;;5124310;27;20235;-80
2023/04/10 02:42:00;;;;;;;40.60;33.00;;;5.60;1.00;;;;;;5126872;27;20221;-81
2023/04/10 02:44:27;;;;;;;41.97;30.75;;;5.60;1.00;;;;;;5130321;27;20237;-81
2023/04/10 02:46:54;;;;;;;46.40;33.85;;;5.60;1.00;;;;;;5125213;27;20245;-81
2023/04/10 02:49:22;;;;;;;43.08;34.05;;;5.60;1.00;;;;;;5126145;27;20238;-81
2023/04/10 02:51:49;;;;;;;42.50;33.10;;;5.60;1.00;;;;;;5125357;27;20237;-81
2023/04/10 02:54:16;;;;;;;38.65;32.33;;;5.60;1.00;;;;;;5123421;27;20232;-80
2023/04/10 02:56:43;;;;;;;43.85;35.03;;;5.60;1.00;;;;;;5126533;27;20264;-81
2023/04/10 02:59:10;;;;;;;42.73;34.77;;;5.60;1.00;;;;;;5128559;27;20241;-80
2023/04/10 03:01:38;;;;;;;46.22;35.53;;;5.60;1.00;;;;;;5125285;27;20456;-80
2023/04/10 03:04:05;;;;;;;43.15;33.53;;;5.70;1.00;;;;;;5124793;27;20249;-80
2023/04/10 03:06:33;;;;;;;43.42;33.80;;;5.70;1.00;;;;;;5127750;27;20225;-80
2023/04/10 03:09:00;;;;;;;46.00;35.35;;;5.70;1.00;;;;;;5122871;27;21073;-80
2023/04/10 03:11:27;;;;;;;42.92;33.03;;;5.60;1.00;;;;;;5131075;27;20229;-80
2023/04/10 03:13:54;;;;;;;46.60;36.55;;;5.60;1.00;;;;;;5130069;27;20252;-79
2023/04/10 03:16:21;;;;;;;42.83;35.90;;;5.50;1.00;;;;;;5133011;27;21008;-79
2023/04/10 03:18:48;;;;;;;47.38;36.60;;;5.40;1.00;;;;;;5130424;27;21161;-79
2023/04/10 03:21:15;;;;;;;40.10;34.03;;;5.20;1.00;;;;;;5127475;27;20241;-80
2023/04/10 03:23:44;;;;;;;43.42;34.70;;;5.20;1.00;;;;;;5132732;27;20220;-81
2023/04/10 03:26:11;;;;;;;40.70;31.67;;;5.20;1.00;;;;;;5131651;27;20951;-80
2023/04/10 03:28:38;;;;;;;37.58;32.05;;;5.10;1.00;;;;;;5128712;27;20239;-80
2023/04/10 03:31:06;;;;;;;40.20;32.13;;;5.10;1.00;;;;;;5135288;27;20217;-80
2023/04/10 03:33:33;;;;;;;40.08;31.65;;;5.10;1.00;;;;;;5126415;27;20236;-81
2023/04/10 03:36:00;;;;;;;38.40;31.90;;;5.10;1.00;;;;;;5128372;27;21984;-80
2023/04/10 03:38:27;;;;;;;38.45;31.73;;;5.00;1.00;;;;;;5132150;27;20232;-80
2023/04/10 03:40:56;;;;;;;36.60;30.25;;;5.00;1.00;;;;;;5125378;27;20231;-80
2023/04/10 03:43:23;;;;;;;37.72;30.35;;;5.00;1.00;;;;;;5123135;27;20265;-82
2023/04/10 03:45:50;;;;;;;39.40;31.65;;;5.00;1.00;;;;;;5126191;27;21026;-80
2023/04/10 03:48:18;;;;;;;37.72;31.17;;;5.00;1.00;;;;;;5125485;27;20288;-81
2023/04/10 03:50:47;;;;;;;34.75;28.80;;;5.00;1.00;;;;;;5129077;27;20255;-80
2023/04/10 03:53:15;;;;;;;30.38;27.23;;;5.10;1.00;;;;;;5128412;27;20240;-80
2023/04/10 03:55:42;;;;;;;42.72;30.70;;;5.20;1.00;;;;;;5127690;27;20236;-79
2023/04/10 03:58:11;;;;;;;39.75;30.02;;;5.20;1.00;;;;;;5113895;27;20226;-79
2023/04/10 04:00:41;;;;;;;34.72;27.80;;;5.20;1.00;;;;;;5129073;27;20243;-80
2023/04/10 04:03:08;;;;;;;34.67;28.48;;;5.30;1.00;;;;;;5124673;27;20236;-80
2023/04/10 04:05:34;;;;;;;33.95;28.40;;;5.30;1.00;;;;;;5123971;27;20249;-80
2023/04/10 04:08:03;;;;;;;37.50;28.02;;;5.20;1.00;;;;;;5128567;27;20269;-81
2023/04/10 04:10:30;;;;;;;33.42;27.33;;;5.20;1.00;;;;;;5127423;27;20243;-80
2023/04/10 04:12:57;;;;;;;29.65;25.23;;;5.20;1.00;;;;;;5120917;27;20271;-80
2023/04/10 04:15:26;;;;;;;32.40;27.17;;;5.10;1.00;;;;;;5128317;27;20241;-82
2023/04/10 04:17:53;;;;;;;34.92;26.77;;;5.10;1.00;;;;;;5126457;27;20242;-81
2023/04/10 04:20:22;;;;;;;32.10;26.45;;;5.10;1.00;;;;;;5120062;27;20268;-80
2023/04/10 04:22:49;;;;;;;34.00;27.40;;;5.00;1.00;;;;;;5127223;27;20237;-80
2023/04/10 04:25:18;;;;;;;28.85;25.75;;;5.00;1.00;;;;;;5123845;27;20250;-80
2023/04/10 04:27:46;;;;;;;31.95;27.08;;;5.10;1.00;;;;;;5126032;27;20269;-79
2023/04/10 04:30:13;;;;;;;31.20;26.45;;;5.10;1.00;;;;;;5124452;27;20253;-80
2023/04/10 04:32:41;;;;;;;28.38;23.52;;;5.10;1.00;;;;;;5128916;27;20238;-81
2023/04/10 04:35:09;;;;;;;32.05;26.40;;;5.10;1.00;;;;;;5129510;27;20231;-81
2023/04/10 04:37:36;;;;;;;29.75;24.85;;;5.20;1.00;;;;;;5126758;27;20232;-80
2023/04/10 04:40:04;;;;;;;33.25;27.50;;;5.20;1.00;;;;;;5130960;27;20243;-80
2023/04/10 04:42:31;;;;;;;29.42;26.17;;;5.20;1.00;;;;;;5124498;27;20231;-81
2023/04/10 04:44:59;;;;;;;31.00;25.08;;;5.30;1.00;;;;;;5127893;27;20233;-81
2023/04/10 04:47:26;;;;;;;32.70;25.77;;;5.20;1.00;;;;;;5130831;27;20238;-80
2023/04/10 04:49:56;;;;;;;30.88;26.17;;;5.20;1.00;;;;;;5132804;27;20239;-80
2023/04/10 04:52:24;;;;;;;35.40;25.90;;;5.20;1.00;;;;;;5129525;27;20297;-82
2023/04/10 04:54:51;;;;;;;30.75;25.15;;;5.20;1.00;;;;;;5132433;27;20220;-81
2023/04/10 04:57:19;;;;;;;31.55;25.70;;;5.20;1.00;;;;;;5127055;27;20243;-79
2023/04/10 04:59:46;;;;;;;27.65;24.27;;;5.20;1.00;;;;;;5129323;27;20270;-80
2023/04/10 05:02:13;;;;;;;30.67;24.67;;;5.20;1.00;;;;;;5129092;27;21152;-80
2023/04/10 05:04:40;;;;;;;28.92;24.50;;;5.10;1.00;;;;;;5129521;27;20231;-80
2023/04/10 05:07:10;;;;;;;31.92;27.42;;;5.10;1.00;;;;;;5129535;27;20233;-81
2023/04/10 05:09:37;;;;;;;32.45;26.15;;;5.10;1.00;;;;;;5131200;27;20232;-81
2023/04/10 05:12:04;;;;;;;32.65;25.40;;;5.10;1.00;;;;;;5128624;27;20232;-81
2023/04/10 05:14:32;;;;;;;31.58;24.80;;;5.10;1.00;;;;;;5131503;27;20225;-81
2023/04/10 05:16:59;;;;;;;29.13;25.60;;;5.10;1.00;;;;;;5130335;27;20237;-80
2023/04/10 05:19:26;;;;;;;29.85;25.45;;;5.30;1.00;;;;;;5131897;27;20258;-81
2023/04/10 05:21:53;;;;;;;27.23;24.33;;;5.40;1.00;;;;;;5125209;27;20227;-80
2023/04/10 05:24:25;;;;;;;31.02;24.30;;;5.50;1.00;;;;;;5129647;27;20240;-79
2023/04/10 05:26:53;;;;;;;27.67;24.70;;;5.70;1.00;;;;;;5130137;27;20234;-81
2023/04/10 05:29:22;;;;;;;30.35;23.50;;;5.80;1.00;;;;;;5129285;27;20328;-81
2023/04/10 05:31:49;;;;;;;29.13;23.88;;;6.00;1.00;;;;;;5122453;27;20242;-81
2023/04/10 05:34:16;;;;;;;31.23;24.05;;;6.10;1.00;;;;;;5124307;27;20240;-80
2023/04/10 05:36:43;;;;;;;27.80;24.00;;;6.20;1.00;;;;;;5127121;27;20254;-82
2023/04/10 05:39:10;;;;;;;27.90;24.45;;;6.30;1.00;;;;;;5128364;27;20238;-81
2023/04/10 05:41:39;;;;;;;30.30;25.50;;;6.40;1.00;;;;;;5134943;27;20309;-80
2023/04/10 05:44:06;;;;;;;30.40;24.63;;;6.40;1.00;;;;;;5132874;27;20454;-83
2023/04/10 05:46:33;;;;;;;27.57;24.67;;;6.50;1.00;;;;;;5130096;27;20539;-80
2023/04/10 05:49:00;;;;;;;30.83;25.67;;;6.60;1.00;;;;;;5130436;27;20504;-83
2023/04/10 05:51:27;;;;;;;28.33;25.40;;;6.70;1.00;;;;;;5126881;27;20462;-80
2023/04/10 05:53:57;;;;;;;28.27;23.87;;;6.90;1.00;;;;;;5129689;27;20470;-81
2023/04/10 05:56:24;;;;;;;27.03;23.33;;;7.00;1.00;;;;;;5127690;27;21315;-81
2023/04/10 05:58:53;;;;;;;30.30;22.33;;;7.20;1.00;;;;;;5126742;27;20456;-82
2023/04/10 06:01:20;;;;;;;23.97;21.37;;;7.40;1.00;;;;;;5131062;27;21278;-81
2023/04/10 06:03:47;;;;;;;24.67;20.63;;;7.60;1.00;;;;;;5123949;27;20484;-81
2023/04/10 06:06:14;;;;;;;25.27;19.23;;;7.80;1.00;;;;;;5135488;27;20452;-81
2023/04/10 06:08:41;;;;;;;22.70;18.70;;;7.90;1.00;;;;;;5137914;27;20492;-82
2023/04/10 06:11:08;;;;;;;22.47;18.40;;;8.00;1.00;;;;;;5134095;27;20541;-81
2023/04/10 06:13:36;;;;;;;21.70;19.50;;;8.00;1.00;;;;;;5131989;27;20532;-80
2023/04/10 06:16:05;;;;;;;22.03;18.90;;;8.20;1.00;;;;;;5135317;27;20470;-81
2023/04/10 06:18:32;;;;;;;20.90;18.80;;;8.40;1.00;;;;;;5138317;27;20424;-81
2023/04/10 06:21:00;;;;;;;20.40;18.20;;;8.70;1.00;;;;;;5133033;27;20449;-81
2023/04/10 06:23:29;;;;;;;20.90;18.70;;;8.90;1.00;;;;;;5140043;27;20407;-80
2023/04/10 06:25:56;;;;;;;21.47;19.30;;;9.10;1.00;;;;;;5133908;27;20494;-81
2023/04/10 06:28:23;;;;;;;20.57;18.37;;;9.10;1.00;;;;;;5128514;27;20508;-81
2023/04/10 06:30:51;;;;;;;23.57;20.50;;;9.20;1.00;;;;;;5134453;27;20969;-81
2023/04/10 06:33:37;;;;;;;23.70;21.10;;;9.10;1.00;;;;;;5137337;27;20514;-81
2023/04/10 06:36:05;;;;;;;25.40;21.60;;;9.30;1.00;;;;;;5135055;27;20438;-81
2023/04/10 06:38:36;;;;;;;24.43;20.70;;;9.60;1.00;;;;;;5132005;27;20470;-82
2023/04/10 06:41:05;;;;;;;24.00;21.57;;;9.70;1.00;;;;;;5122645;27;20754;-81
2023/04/10 06:43:34;;;;;;;23.80;21.30;;;9.70;1.00;;;;;;5132643;27;20457;-79
2023/04/10 06:46:01;;;;;;;28.33;23.40;;;9.70;1.00;;;;;;5134865;27;20445;-81
2023/04/10 06:48:28;;;;;;;36.70;31.00;;;10.00;1.00;;;;;;5133121;27;20417;-82
2023/04/10 06:51:00;;;;;;;27.70;24.83;;;10.20;1.00;;;;;;5134261;27;20500;-81
2023/04/10 06:53:30;;;;;;;24.93;22.40;;;10.20;1.00;;;;;;5132884;27;20452;-81
2023/04/10 06:55:57;;;;;;;27.23;24.03;;;10.10;1.00;;;;;;5135628;27;20503;-81
2023/04/10 06:58:31;;;;;;;26.77;23.07;;;10.30;1.00;;;;;;5134324;27;21322;-81
2023/04/10 07:01:02;;;;;;;28.83;25.83;;;10.40;1.00;;;;;;5127271;27;20435;-81
2023/04/10 07:03:29;;;;;;;29.47;24.53;;;10.60;1.00;;;;;;5132752;27;20480;-82
2023/04/10 07:05:58;;;;;;;29.13;25.33;;;10.60;1.00;;;;;;5129290;27;21473;-81
2023/04/10 07:08:25;;;;;;;32.17;28.70;;;10.70;1.00;;;;;;5131039;27;20460;-82
2023/04/10 07:10:54;;;;;;;35.53;27.80;;;10.70;1.00;;;;;;5134011;27;20437;-82
2023/04/10 07:13:21;;;;;;;30.20;27.00;;;10.70;1.00;;;;;;5132724;27;20423;-81
2023/04/10 07:15:48;;;;;;;37.20;30.33;;;10.70;1.00;;;;;;5134682;27;20435;-81
2023/04/10 07:18:16;;;;;;;36.50;30.60;;;10.70;1.00;;;;;;5130380;27;20448;-81
2023/04/10 07:20:42;;;;;;;32.87;29.33;;;10.70;1.00;;;;;;5132973;27;20499;-82
2023/04/10 07:23:11;;;;;;;33.20;29.30;;;10.70;1.00;;;;;;5134762;27;20484;-80
2023/04/10 07:25:38;;;;;;;31.13;27.70;;;10.90;1.00;;;;;;5136199;27;20463;-80
2023/04/10 07:28:05;;;;;;;32.57;29.07;;;11.10;1.00;;;;;;5130660;27;20467;-81
2023/04/10 07:30:34;;;;;;;37.43;30.23;;;11.20;1.00;;;;;;5130484;27;20461;-81
2023/04/10 07:33:02;;;;;;;31.80;27.50;;;11.10;1.00;;;;;;5136288;27;20507;-81
2023/04/10 07:35:29;;;;;;;32.03;28.20;;;11.10;1.00;;;;;;5121030;27;20479;-81
2023/04/10 07:37:56;;;;;;;35.17;30.60;;;11.30;1.00;;;;;;5130223;27;21226;-80
2023/04/10 07:40:27;;;;;;;33.10;29.17;;;11.50;1.00;;;;;;5135537;27;20519;-81
2023/04/10 07:42:55;;;;;;;38.77;30.67;;;11.60;1.00;;;;;;5133487;27;20480;-82
2023/04/10 07:45:22;;;;;;;32.83;28.07;;;11.60;1.00;;;;;;5137088;27;20438;-81
2023/04/10 07:47:49;;;;;;;36.70;30.33;;;11.70;1.00;;;;;;5131457;27;20490;-82
2023/04/10 07:50:17;;;;;;;36.17;30.20;;;11.80;1.00;;;;;;5136876;27;20457;-82
2023/04/10 07:52:45;;;;;;;34.33;29.43;;;11.80;1.00;;;;;;5131408;27;20430;-83
2023/04/10 07:55:12;;;;;;;32.90;29.40;;;12.00;1.00;;;;;;5135698;27;21326;-82
2023/04/10 07:57:43;;;;;;;34.73;30.90;;;12.10;1.00;;;;;;5124599;27;20432;-80
2023/04/10 08:00:11;;;;;;;36.83;29.57;;;12.10;1.00;;;;;;5131691;27;20438;-82
2023/04/10 08:02:39;;;;;;;33.00;29.27;;;12.20;1.00;;;;;;5135657;27;20459;-81
2023/04/10 08:05:07;;;;;;;32.20;28.80;;;12.30;1.00;;;;;;5134875;27;20435;-81
2023/04/10 08:07:35;;;;;;;32.97;29.37;;;12.50;1.00;;;;;;5134095;27;20462;-80
2023/04/10 08:10:02;;;;;;;33.83;29.13;;;12.60;1.00;;;;;;5133516;27;20474;-81
2023/04/10 08:12:33;;;;;;;34.17;30.40;;;12.80;1.00;;;;;;5134929;27;20550;-81
2023/04/10 08:15:01;;;;;;;32.87;29.37;;;13.00;1.00;;;;;;5117061;27;20487;-83
2023/04/10 08:17:29;;;;;;;34.40;29.03;;;13.20;1.00;;;;;;5132891;27;20472;-82
2023/04/10 08:19:57;;;;;;;32.17;28.73;;;13.20;1.00;;;;;;5134650;27;21664;-82
2023/04/10 08:22:24;;;;;;;30.03;26.87;;;13.20;1.00;;;;;;5131585;27;20482;-80
2023/04/10 08:24:51;;;;;;;30.67;27.30;;;13.40;1.00;;;;;;5133395;27;20475;-82
2023/04/10 08:27:18;;;;;;;32.10;28.37;;;13.50;1.00;;;;;;5136187;27;20468;-80
2023/04/10 08:29:45;;;;;;;32.67;29.37;;;13.60;1.00;;;;;;5129165;27;20465;-80
2023/04/10 08:32:13;;;;;;;33.23;29.73;;;13.60;1.00;;;;;;5126774;27;20476;-82
2023/04/10 08:34:40;;;;;;;32.27;28.80;;;13.80;1.00;;;;;;5127566;27;20513;-80
2023/04/10 08:37:08;;;;;;;31.87;28.13;;;13.80;1.00;;;;;;5128638;27;20467;-82
2023/04/10 08:39:37;;;;;;;30.73;27.40;;;13.90;1.00;;;;;;5126803;27;20425;-81
2023/04/10 08:42:06;;;;;;;29.87;26.67;;;14.00;1.00;;;;;;5138241;27;21955;-80
2023/04/10 08:44:34;;;;;;;30.50;26.37;;;14.20;1.00;;;;;;5136991;27;21256;-81
2023/04/10 08:47:02;;;;;;;29.60;26.60;;;14.40;1.00;;;;;;5128263;27;20948;-81
2023/04/10 08:49:38;;;;;;;29.13;24.77;;;14.70;1.00;;;;;;5133799;27;20504;-81
2023/04/10 08:52:09;;;;;;;29.70;26.53;;;14.80;1.00;;;;;;5126818;27;20457;-81
2023/04/10 08:54:40;;;;;;;27.50;24.73;;;15.00;1.00;;;;;;5137494;27;20489;-81
2023/04/10 08:57:09;;;;;;;23.77;21.10;;;15.20;1.00;;;;;;5125951;27;20429;-80
2023/04/10 08:59:36;;;;;;;28.43;21.60;;;15.10;1.00;;;;;;5139787;27;20475;-82
2023/04/10 09:02:03;;;;;;;24.07;21.47;;;15.20;1.00;;;;;;5139438;27;20454;-80
2023/04/10 09:04:32;;;;;;;23.57;21.17;;;15.30;1.00;;;;;;5144167;27;20503;-80
2023/04/10 09:07:00;;;;;;;29.63;23.10;;;15.50;1.00;;;;;;5136663;27;20518;-80
2023/04/10 09:09:31;;;;;;;23.87;21.33;;;15.70;1.00;;;;;;5140048;27;20464;-82
2023/04/10 09:12:00;;;;;;;21.97;19.67;;;15.80;1.00;;;;;;5137052;27;20456;-82
2023/04/10 09:14:29;;;;;;;20.03;18.03;;;15.90;1.00;;;;;;5140605;27;20480;-83
2023/04/10 09:17:13;;;;;;;24.33;21.70;;;15.90;1.00;;;;;;5129334;27;20445;-81
2023/04/10 09:19:42;;;;;;;21.07;18.70;;;16.10;1.00;;;;;;5136587;27;20466;-83
2023/04/10 09:22:10;;;;;;;19.00;15.80;;;16.10;1.00;;;;;;5128755;27;20480;-83
2023/04/10 09:24:38;;;;;;;19.60;17.57;;;16.20;1.00;;;;;;5126761;27;20490;-82
2023/04/10 09:27:06;;;;;;;18.30;16.40;;;16.80;1.00;;;;;;5140504;27;20455;-83
2023/04/10 09:29:44;;;;;;;19.30;16.87;;;17.80;1.00;;;;;;5135509;27;20465;-82
2023/04/10 09:32:11;;;;;;;18.60;16.17;;;19.20;1.00;;;;;;5136891;27;20462;-81
2023/04/10 09:34:59;;;;;;;18.53;16.60;;;20.60;1.00;;;;;;5138661;27;20467;-83
2023/04/10 09:37:35;;;;;;;18.90;16.37;;;21.70;1.00;;;;;;5135373;27;21037;-82
2023/04/10 09:40:04;;;;;;;17.97;16.23;;;22.40;1.00;;;;;;5131662;27;20542;-81
2023/04/10 09:42:32;;;;;;;16.23;14.50;;;22.90;1.00;;;;;;5134245;27;20463;-83
2023/04/10 09:45:00;;;;;;;19.00;17.00;;;23.40;1.00;;;;;;5136859;27;20479;-81
2023/04/10 09:47:27;;;;;;;18.93;17.07;;;23.60;1.00;;;;;;5139432;27;20448;-81
2023/04/10 09:49:55;;;;;;;17.57;15.97;;;24.20;1.00;;;;;;5128033;27;20452;-81
2023/04/10 09:52:25;;;;;;;18.20;16.40;;;24.90;1.00;;;;;;5132057;27;20459;-82
2023/04/10 09:54:56;;;;;;;18.30;16.43;;;25.50;1.00;;;;;;5132184;27;21348;-81
2023/04/10 09:57:25;;;;;;;19.40;17.30;;;25.70;1.00;;;;;;5137297;27;20439;-82
2023/04/10 09:59:54;;;;;;;17.23;15.43;;;25.70;1.00;;;;;;5129554;27;20488;-82
2023/04/10 10:02:22;;;;;;;17.90;16.13;;;25.30;1.00;;;;;;5131263;27;20462;-82
2023/04/10 10:04:50;;;;;;;18.93;16.13;;;25.30;1.00;;;;;;5129666;27;20755;-81
2023/04/10 10:07:20;;;;;;;15.63;14.13;;;25.80;1.00;;;;;;5138579;27;20429;-80
2023/04/10 10:09:50;;;;;;;14.63;13.20;;;26.20;1.00;;;;;;5134901;27;20456;-81
2023/04/10 10:12:22;;;;;;;14.60;13.10;;;26.50;1.00;;;;;;5134604;27;20808;-81
2023/04/10 10:14:57;;;;;;;13.33;11.50;;;26.80;1.00;;;;;;5130786;27;20443;-82
2023/04/10 10:17:35;;;;;;;12.73;11.53;;;27.00;1.00;;;;;;5127657;27;20417;-81
2023/04/10 10:20:04;;;;;;;13.53;12.30;;;26.90;1.00;;;;;;5133473;27;20456;-81
2023/04/10 10:22:32;;;;;;;11.30;10.20;;;26.80;1.00;;;;;;5130344;27;20486;-81
2023/04/10 10:25:02;;;;;;;12.03;10.93;;;26.50;1.00;;;;;;5135148;27;20463;-81
2023/04/10 10:27:31;;;;;;;13.27;12.00;;;26.40;1.00;;;;;;5134993;27;20489;-81
2023/04/10 10:30:00;;;;;;;13.20;12.03;;;26.50;1.00;;;;;;5135483;27;20490;-81
2023/04/10 10:32:30;;;;;;;10.47;9.57;;;26.60;1.00;;;;;;5133609;27;20439;-81
2023/04/10 10:34:58;;;;;;;12.03;10.93;;;27.80;1.00;;;;;;5130122;27;20439;-79
2023/04/10 10:37:26;;;;;;;10.97;9.80;;;27.80;1.00;;;;;;5132619;27;20495;-80
2023/04/10 10:40:03;;;;;;;10.97;9.97;;;28.00;1.00;;;;;;5130286;27;20436;-81
2023/04/10 10:42:35;;;;;;;9.83;8.93;;;28.10;1.00;;;;;;5134268;27;20493;-83
2023/04/10 10:45:10;;;;;;;10.03;9.07;;;28.20;1.00;;;;;;5123751;27;20499;-82
2023/04/10 10:47:42;;;;;;;9.87;8.97;;;28.00;1.00;;;;;;5129163;27;21692;-83
2023/04/10 10:50:12;;;;;;;11.30;10.13;;;28.20;1.00;;;;;;5131226;27;20496;-82
2023/04/10 10:52:44;;;;;;;10.57;9.67;;;29.30;1.00;;;;;;5125957;27;21211;-82
2023/04/10 10:55:35;;;;;;;8.97;8.23;;;30.10;1.00;;;;;;5132248;27;20507;-82
2023/04/10 10:58:04;;;;;;;11.60;9.37;;;29.80;1.00;;;;;;5132961;27;20510;-82
2023/04/10 11:01:06;;;;;;;9.57;8.67;;;29.40;1.00;;;;;;5130961;27;20453;-81
2023/04/10 11:03:33;;;;;;;10.40;9.50;;;29.40;1.00;;;;;;5129962;27;21207;-81
2023/04/10 11:06:02;;;;;;;10.00;8.93;;;29.60;1.00;;;;;;5129623;27;20426;-83
2023/04/10 11:08:42;;;;;;;21.30;19.30;;;29.90;1.00;;;;;;5132037;27;20473;-81
2023/04/10 11:11:32;;;;;;;10.67;9.63;;;29.90;1.00;;;;;;5126591;27;20476;-82
2023/04/10 11:14:17;;;;;;;10.03;8.97;;;28.70;1.00;;;;;;5122164;27;20488;-83
2023/04/10 11:16:46;;;;;;;10.30;9.30;;;29.10;1.00;;;;;;5125611;27;20468;-82
2023/04/10 11:19:20;;;;;;;11.10;10.10;;;28.50;1.00;;;;;;5128564;27;21143;-82
2023/04/10 11:22:07;;;;;;;11.07;10.07;;;28.40;1.00;;;;;;5126733;27;20522;-81
2023/04/10 11:24:55;;;;;;;10.57;9.50;;;29.20;1.00;;;;;;5119274;27;20438;-80
2023/04/10 11:27:51;;;;;;;10.60;9.70;;;29.60;1.00;;;;;;5131083;27;20532;-82
2023/04/10 11:30:35;;;;;;;10.70;9.40;;;29.80;1.00;;;;;;5132046;27;20418;-83
2023/04/10 11:33:06;;;;;;;10.57;9.57;;;29.90;1.00;;;;;;5134619;27;20486;-82
2023/04/10 11:35:36;;;;;;;9.43;8.60;;;29.70;1.00;;;;;;5130857;27;20681;-80
2023/04/10 11:38:14;;;;;;;9.23;8.23;;;29.20;1.00;;;;;;5113188;27;20592;-81
2023/04/10 11:40:54;;;;;;;8.60;7.80;;;29.10;1.00;;;;;;5132241;27;20436;-82
2023/04/10 11:43:25;;;;;;;8.30;7.50;;;28.70;1.00;;;;;;5135278;27;20463;-81
2023/04/10 11:46:04;;;;;;;8.13;7.47;;;28.90;1.00;;;;;;5135532;27;20408;-83
2023/04/10 11:48:31;;;;;;;10.13;9.13;;;29.80;1.00;;;;;;5129796;27;20552;-80
2023/04/10 11:51:00;;;;;;;9.20;8.40;;;30.60;1.00;;;;;;5130810;27;20440;-82
2023/04/10 11:53:28;;;;;;;9.63;8.70;;;31.40;1.00;;;;;;5134663;27;21281;-81
2023/04/10 11:55:57;;;;;;;8.73;8.03;;;31.20;1.00;;;;;;5137194;27;20469;-81
2023/04/10 11:58:29;;;;;;;9.20;8.20;;;30.50;1.00;;;;;;5138821;27;20500;-81
2023/04/10 12:01:01;;;;;;;9.20;8.33;;;29.80;1.00;;;;;;5133885;27;20517;-82
2023/04/10 12:03:37;;;;;;;8.43;7.73;;;29.90;1.00;;;;;;5135323;27;20454;-82
2023/04/10 12:06:08;;;;;;;8.27;7.47;;;30.20;1.00;;;;;;5121505;27;20440;-81
2023/04/10 12:08:38;;;;;;;7.17;6.57;;;29.90;1.00;;;;;;5135606;27;20441;-81
2023/04/10 12:11:05;;;;;;;7.20;6.50;;;30.00;1.00;;;;;;5135405;27;20453;-81
2023/04/10 12:13:34;;;;;;;7.47;6.77;;;29.70;1.00;;;;;;5131988;27;20430;-81
2023/04/10 12:16:03;;;;;;;6.77;6.23;;;29.40;1.00;;;;;;5129097;27;21163;-81
2023/04/10 12:18:30;;;;;;;7.67;7.07;;;29.60;1.00;;;;;;5134974;27;20433;-80
2023/04/10 12:20:58;;;;;;;8.43;7.73;;;29.50;1.00;;;;;;5132596;27;20452;-80
2023/04/10 12:23:26;;;;;;;7.40;6.70;;;30.50;1.00;;;;;;5136986;27;20452;-80
2023/04/10 12:26:08;;;;;;;6.50;5.90;;;31.10;1.00;;;;;;5139871;27;20456;-81
2023/04/10 12:28:38;;;;;;;6.33;5.73;;;31.40;1.00;;;;;;5136039;27;20448;-80
2023/04/10 12:31:06;;;;;;;6.63;5.50;;;30.90;1.00;;;;;;5128822;27;20461;-80
2023/04/10 12:33:34;;;;;;;6.77;6.17;;;30.50;1.00;;;;;;5134558;27;20794;-79
2023/04/10 12:36:02;;;;;;;7.40;6.80;;;31.00;1.00;;;;;;5138517;27;20453;-79
2023/04/10 12:38:40;;;;;;;10.10;7.33;;;30.90;1.00;;;;;;5135850;27;20480;-80
2023/04/10 12:41:08;;;;;;;9.00;8.20;;;31.50;1.00;;;;;;5123204;27;20457;-81
2023/04/10 12:43:39;;;;;;;7.43;6.77;;;31.10;1.00;;;;;;5135726;27;20458;-81
2023/04/10 12:46:08;;;;;;;8.20;7.50;;;31.10;1.00;;;;;;5133972;27;20485;-79
2023/04/10 12:48:36;;;;;;;7.87;7.20;;;31.10;1.00;;;;;;5138682;27;20432;-81
2023/04/10 12:51:04;;;;;;;7.90;7.10;;;30.20;1.00;;;;;;5140969;27;20562;-80
2023/04/10 12:53:31;;;;;;;10.90;9.97;;;30.00;1.00;;;;;;5130192;27;20444;-80
2023/04/10 12:56:01;;;;;;;8.07;7.27;;;29.20;1.00;;;;;;5129918;27;21479;-80
2023/04/10 12:58:30;;;;;;;8.83;7.57;;;29.10;1.00;;;;;;5131892;27;20459;-81